sensor_id;sensor_type;location;lat;lon;timestamp;pressure;altitude;pressure_sealevel;temperature;humidity
13209;BME280;6669;42.678;23.332;2023-03-21T00:00:53;94375.91;;;12.57;100.00
13209;BME280;6669;42.678;23.332;2023-03-21T00:03:21;94376.31;;;12.61;99.94
13209;BME280;6669;42.678;23.332;2023-03-21T00:05:49;94378.47;;;12.50;100.00
13209;BME280;6669;42.678;23.332;2023-03-21T00:08:22;94374.28;;;12.27;100.00
13209;BME280;6669;42.678;23.332;2023-03-21T00:10:55;94377.44;;;12.01;100.00
13209;BME280;6669;42.678;23.332;2023-03-21T00:13:24;94371.22;;;11.59;100.00
13209;BME280;6669;42.678;23.332;2023-03-21T00:15:54;94368.47;;;11.45;100.00
13209;BME280;6669;42.678;23.332;2023-03-21T00:18:42;94381.84;;;11.42;100.00
13209;BME280;6669;42.678;23.332;2023-03-21T00:21:13;94372.63;;;11.25;100.00
13209;BME280;6669;42.678;23.332;2023-03-21T00:24:04;94379.31;;;11.12;100.00
13209;BME280;6669;42.678;23.332;2023-03-21T00:26:34;94358.06;;;10.94;100.00
13209;BME280;6669;42.678;23.332;2023-03-21T00:29:04;94361.94;;;10.83;100.00
13209;BME280;6669;42.678;23.332;2023-03-21T00:31:32;94369.16;;;10.73;100.00
13209;BME280;6669;42.678;23.332;2023-03-21T00:34:00;94380.91;;;10.69;100.00
13209;BME280;6669;42.678;23.332;2023-03-21T00:36:28;94379.13;;;10.69;100.00
13209;BME280;6669;42.678;23.332;2023-03-21T00:38:56;94380.44;;;10.65;100.00
13209;BME280;6669;42.678;23.332;2023-03-21T00:41:27;94381.97;;;10.59;100.00
13209;BME280;6669;42.678;23.332;2023-03-21T00:44:11;94360.28;;;10.52;100.00
13209;BME280;6669;42.678;23.332;2023-03-21T00:46:41;94367.56;;;10.57;100.00
13209;BME280;6669;42.678;23.332;2023-03-21T00:49:26;94367.19;;;10.60;100.00
13209;BME280;6669;42.678;23.332;2023-03-21T00:51:55;94379.56;;;10.73;100.00
13209;BME280;6669;42.678;23.332;2023-03-21T00:54:40;94371.88;;;10.79;100.00
13209;BME280;6669;42.678;23.332;2023-03-21T00:57:10;94343.44;;;10.63;100.00
13209;BME280;6669;42.678;23.332;2023-03-21T00:59:38;94357.16;;;10.87;100.00
13209;BME280;6669;42.678;23.332;2023-03-21T01:02:06;94347.38;;;10.89;100.00
13209;BME280;6669;42.678;23.332;2023-03-21T01:04:34;94361.56;;;11.01;100.00
13209;BME280;6669;42.678;23.332;2023-03-21T01:07:02;94372.09;;;11.15;100.00
13209;BME280;6669;42.678;23.332;2023-03-21T01:09:30;94362.16;;;11.18;100.00
13209;BME280;6669;42.678;23.332;2023-03-21T01:11:58;94352.28;;;11.13;100.00
13209;BME280;6669;42.678;23.332;2023-03-21T01:14:28;94362.59;;;11.22;100.00
13209;BME280;6669;42.678;23.332;2023-03-21T01:16:55;94358.38;;;11.21;100.00
13209;BME280;6669;42.678;23.332;2023-03-21T01:19:24;94356.97;;;11.03;100.00
13209;BME280;6669;42.678;23.332;2023-03-21T01:22:10;94353.75;;;11.01;100.00
13209;BME280;6669;42.678;23.332;2023-03-21T01:24:38;94359.22;;;10.91;100.00
13209;BME280;6669;42.678;23.332;2023-03-21T01:27:19;94362.34;;;10.87;100.00
13209;BME280;6669;42.678;23.332;2023-03-21T01:29:48;94348.94;;;10.83;100.00
13209;BME280;6669;42.678;23.332;2023-03-21T01:32:16;94362.25;;;10.80;100.00
13209;BME280;6669;42.678;23.332;2023-03-21T01:34:44;94370.41;;;10.62;100.00
13209;BME280;6669;42.678;23.332;2023-03-21T01:37:12;94369.91;;;10.67;100.00
13209;BME280;6669;42.678;23.332;2023-03-21T01:39:43;94364.69;;;10.67;100.00
13209;BME280;6669;42.678;23.332;2023-03-21T01:42:12;94349.88;;;10.52;100.00
13209;BME280;6669;42.678;23.332;2023-03-21T01:44:56;94350.44;;;10.48;100.00
13209;BME280;6669;42.678;23.332;2023-03-21T01:47:24;94361.81;;;10.46;100.00
13209;BME280;6669;42.678;23.332;2023-03-21T01:49:55;94362.13;;;10.28;100.00
13209;BME280;6669;42.678;23.332;2023-03-21T01:52:25;94363.19;;;10.34;100.00
13209;BME280;6669;42.678;23.332;2023-03-21T01:55:05;94359.13;;;10.17;100.00
13209;BME280;6669;42.678;23.332;2023-03-21T01:57:40;94363.94;;;10.05;100.00
13209;BME280;6669;42.678;23.332;2023-03-21T02:00:31;94348.81;;;10.08;100.00
13209;BME280;6669;42.678;23.332;2023-03-21T02:03:06;94354.34;;;10.05;100.00
13209;BME280;6669;42.678;23.332;2023-03-21T02:05:50;94351.22;;;10.10;100.00
13209;BME280;6669;42.678;23.332;2023-03-21T02:08:19;94345.94;;;10.03;100.00
13209;BME280;6669;42.678;23.332;2023-03-21T02:11:04;94347.09;;;10.01;100.00
13209;BME280;6669;42.678;23.332;2023-03-21T02:13:32;94356.31;;;10.03;100.00
13209;BME280;6669;42.678;23.332;2023-03-21T02:16:08;94350.44;;;10.09;100.00
13209;BME280;6669;42.678;23.332;2023-03-21T02:18:44;94344.22;;;10.10;100.00
13209;BME280;6669;42.678;23.332;2023-03-21T02:21:27;94351.91;;;10.04;100.00
13209;BME280;6669;42.678;23.332;2023-03-21T02:27:15;94328.44;;;9.97;100.00
13209;BME280;6669;42.678;23.332;2023-03-21T02:30:20;94347.09;;;10.15;100.00
13209;BME280;6669;42.678;23.332;2023-03-21T02:36:15;94331.69;;;10.14;100.00
13209;BME280;6669;42.678;23.332;2023-03-21T02:38:51;94331.97;;;10.19;100.00
13209;BME280;6669;42.678;23.332;2023-03-21T02:41:29;94342.91;;;10.29;100.00
13209;BME280;6669;42.678;23.332;2023-03-21T02:44:10;94349.22;;;10.35;100.00
13209;BME280;6669;42.678;23.332;2023-03-21T02:46:46;94341.28;;;10.37;100.00
13209;BME280;6669;42.678;23.332;2023-03-21T02:49:34;94338.50;;;10.38;100.00
13209;BME280;6669;42.678;23.332;2023-03-21T02:52:10;94341.91;;;10.39;100.00
13209;BME280;6669;42.678;23.332;2023-03-21T02:54:59;94331.56;;;10.30;100.00
13209;BME280;6669;42.678;23.332;2023-03-21T02:57:29;94340.88;;;10.25;100.00
13209;BME280;6669;42.678;23.332;2023-03-21T03:00:10;94337.56;;;10.31;100.00
13209;BME280;6669;42.678;23.332;2023-03-21T03:02:42;94340.66;;;10.11;100.00
13209;BME280;6669;42.678;23.332;2023-03-21T03:05:15;94340.03;;;10.09;100.00
13209;BME280;6669;42.678;23.332;2023-03-21T03:07:55;94340.66;;;10.11;100.00
13209;BME280;6669;42.678;23.332;2023-03-21T03:10:41;94342.28;;;10.12;100.00
13209;BME280;6669;42.678;23.332;2023-03-21T03:13:23;94338.78;;;10.20;100.00
13209;BME280;6669;42.678;23.332;2023-03-21T03:16:06;94323.63;;;10.09;100.00
13209;BME280;6669;42.678;23.332;2023-03-21T03:18:40;94331.53;;;10.15;100.00
13209;BME280;6669;42.678;23.332;2023-03-21T03:21:17;94346.25;;;10.23;100.00
13209;BME280;6669;42.678;23.332;2023-03-21T03:23:49;94342.50;;;10.26;100.00
13209;BME280;6669;42.678;23.332;2023-03-21T03:26:23;94336.72;;;10.15;100.00
13209;BME280;6669;42.678;23.332;2023-03-21T03:28:57;94339.47;;;9.99;100.00
13209;BME280;6669;42.678;23.332;2023-03-21T03:31:31;94335.41;;;9.96;100.00
13209;BME280;6669;42.678;23.332;2023-03-21T03:34:04;94347.31;;;9.91;100.00
13209;BME280;6669;42.678;23.332;2023-03-21T03:36:38;94338.88;;;9.89;100.00
13209;BME280;6669;42.678;23.332;2023-03-21T03:39:10;94340.88;;;9.87;100.00
13209;BME280;6669;42.678;23.332;2023-03-21T03:41:45;94342.94;;;9.91;100.00
13209;BME280;6669;42.678;23.332;2023-03-21T03:44:35;94343.75;;;9.92;100.00
13209;BME280;6669;42.678;23.332;2023-03-21T03:47:05;94349.81;;;9.84;100.00
13209;BME280;6669;42.678;23.332;2023-03-21T03:49:41;94350.44;;;9.86;100.00
13209;BME280;6669;42.678;23.332;2023-03-21T03:52:12;94343.38;;;9.80;100.00
13209;BME280;6669;42.678;23.332;2023-03-21T03:54:45;94347.34;;;9.68;100.00
13209;BME280;6669;42.678;23.332;2023-03-21T03:57:15;94342.25;;;9.74;100.00
13209;BME280;6669;42.678;23.332;2023-03-21T03:59:45;94343.31;;;9.65;100.00
13209;BME280;6669;42.678;23.332;2023-03-21T04:02:13;94350.78;;;9.60;100.00
13209;BME280;6669;42.678;23.332;2023-03-21T04:04:43;94340.88;;;9.63;100.00
13209;BME280;6669;42.678;23.332;2023-03-21T04:07:11;94341.09;;;9.77;100.00
13209;BME280;6669;42.678;23.332;2023-03-21T04:09:39;94350.00;;;9.82;100.00
13209;BME280;6669;42.678;23.332;2023-03-21T04:12:10;94352.50;;;9.91;100.00
13209;BME280;6669;42.678;23.332;2023-03-21T04:14:41;94345.88;;;9.88;100.00
13209;BME280;6669;42.678;23.332;2023-03-21T04:17:13;94345.69;;;9.90;100.00
13209;BME280;6669;42.678;23.332;2023-03-21T04:19:41;94349.56;;;9.94;100.00
13209;BME280;6669;42.678;23.332;2023-03-21T04:22:09;94348.56;;;9.80;100.00
13209;BME280;6669;42.678;23.332;2023-03-21T04:24:37;94347.25;;;9.76;100.00
13209;BME280;6669;42.678;23.332;2023-03-21T04:27:05;94323.00;;;9.69;100.00
13209;BME280;6669;42.678;23.332;2023-03-21T04:29:34;94329.97;;;9.68;100.00
13209;BME280;6669;42.678;23.332;2023-03-21T04:32:03;94324.72;;;9.53;100.00
13209;BME280;6669;42.678;23.332;2023-03-21T04:34:31;94331.31;;;9.64;100.00
13209;BME280;6669;42.678;23.332;2023-03-21T04:37:05;94337.94;;;9.67;100.00
13209;BME280;6669;42.678;23.332;2023-03-21T04:39:36;94336.38;;;9.57;100.00
13209;BME280;6669;42.678;23.332;2023-03-21T04:42:04;94337.34;;;9.56;100.00
13209;BME280;6669;42.678;23.332;2023-03-21T04:44:33;94333.78;;;9.57;100.00
13209;BME280;6669;42.678;23.332;2023-03-21T04:47:01;94336.31;;;9.65;100.00
13209;BME280;6669;42.678;23.332;2023-03-21T04:49:30;94334.25;;;9.61;100.00
13209;BME280;6669;42.678;23.332;2023-03-21T04:51:58;94338.03;;;9.73;100.00
13209;BME280;6669;42.678;23.332;2023-03-21T04:54:26;94337.53;;;9.78;100.00
13209;BME280;6669;42.678;23.332;2023-03-21T04:56:54;94344.25;;;9.87;100.00
13209;BME280;6669;42.678;23.332;2023-03-21T04:59:22;94353.31;;;9.91;100.00
13209;BME280;6669;42.678;23.332;2023-03-21T05:01:51;94340.03;;;9.86;100.00
13209;BME280;6669;42.678;23.332;2023-03-21T05:04:23;94336.41;;;9.95;100.00
13209;BME280;6669;42.678;23.332;2023-03-21T05:06:54;94340.69;;;9.88;100.00
13209;BME280;6669;42.678;23.332;2023-03-21T05:09:22;94350.44;;;9.86;100.00
13209;BME280;6669;42.678;23.332;2023-03-21T05:11:50;94345.03;;;9.73;100.00
13209;BME280;6669;42.678;23.332;2023-03-21T05:14:20;94341.75;;;9.79;100.00
13209;BME280;6669;42.678;23.332;2023-03-21T05:16:49;94358.06;;;9.88;100.00
13209;BME280;6669;42.678;23.332;2023-03-21T05:19:25;94355.63;;;9.86;100.00
13209;BME280;6669;42.678;23.332;2023-03-21T05:22:03;94360.13;;;9.69;100.00
13209;BME280;6669;42.678;23.332;2023-03-21T05:24:32;94364.97;;;9.49;100.00
13209;BME280;6669;42.678;23.332;2023-03-21T05:27:00;94359.16;;;9.47;100.00
13209;BME280;6669;42.678;23.332;2023-03-21T05:29:29;94359.34;;;9.37;100.00
13209;BME280;6669;42.678;23.332;2023-03-21T05:31:59;94363.56;;;9.38;100.00
13209;BME280;6669;42.678;23.332;2023-03-21T05:34:28;94364.09;;;9.57;100.00
13209;BME280;6669;42.678;23.332;2023-03-21T05:36:57;94341.72;;;9.56;100.00
13209;BME280;6669;42.678;23.332;2023-03-21T05:39:27;94361.78;;;9.62;100.00
13209;BME280;6669;42.678;23.332;2023-03-21T05:41:54;94357.59;;;9.61;100.00
13209;BME280;6669;42.678;23.332;2023-03-21T05:44:22;94357.72;;;9.44;100.00
13209;BME280;6669;42.678;23.332;2023-03-21T05:46:50;94356.50;;;9.55;100.00
13209;BME280;6669;42.678;23.332;2023-03-21T05:49:18;94354.06;;;9.77;100.00
13209;BME280;6669;42.678;23.332;2023-03-21T05:51:48;94349.91;;;9.91;100.00
13209;BME280;6669;42.678;23.332;2023-03-21T05:54:16;94340.41;;;9.83;100.00
13209;BME280;6669;42.678;23.332;2023-03-21T05:56:45;94346.34;;;9.92;100.00
13209;BME280;6669;42.678;23.332;2023-03-21T05:59:13;94338.19;;;9.95;100.00
13209;BME280;6669;42.678;23.332;2023-03-21T06:01:42;94332.94;;;10.03;100.00
13209;BME280;6669;42.678;23.332;2023-03-21T06:04:10;94337.41;;;9.94;100.00
13209;BME280;6669;42.678;23.332;2023-03-21T06:06:38;94336.06;;;9.98;100.00
13209;BME280;6669;42.678;23.332;2023-03-21T06:09:06;94328.31;;;10.13;100.00
13209;BME280;6669;42.678;23.332;2023-03-21T06:11:38;94328.56;;;10.42;100.00
13209;BME280;6669;42.678;23.332;2023-03-21T06:14:09;94323.63;;;10.62;100.00
13209;BME280;6669;42.678;23.332;2023-03-21T06:16:37;94330.72;;;10.83;100.00
13209;BME280;6669;42.678;23.332;2023-03-21T06:19:05;94320.13;;;11.00;100.00
13209;BME280;6669;42.678;23.332;2023-03-21T06:21:33;94323.06;;;11.11;100.00
13209;BME280;6669;42.678;23.332;2023-03-21T06:24:01;94319.00;;;11.24;100.00
13209;BME280;6669;42.678;23.332;2023-03-21T06:26:30;94323.59;;;11.43;100.00
13209;BME280;6669;42.678;23.332;2023-03-21T06:28:58;94322.69;;;11.51;100.00
13209;BME280;6669;42.678;23.332;2023-03-21T06:31:27;94322.31;;;11.54;100.00
13209;BME280;6669;42.678;23.332;2023-03-21T06:33:55;94302.25;;;11.48;100.00
13209;BME280;6669;42.678;23.332;2023-03-21T06:36:23;94316.78;;;11.64;100.00
13209;BME280;6669;42.678;23.332;2023-03-21T06:38:51;94314.06;;;11.72;100.00
13209;BME280;6669;42.678;23.332;2023-03-21T06:41:19;94327.34;;;11.77;100.00
13209;BME280;6669;42.678;23.332;2023-03-21T06:43:47;94337.03;;;11.84;100.00
13209;BME280;6669;42.678;23.332;2023-03-21T06:46:15;94334.91;;;11.94;100.00
13209;BME280;6669;42.678;23.332;2023-03-21T06:48:45;94334.34;;;11.99;100.00
13209;BME280;6669;42.678;23.332;2023-03-21T06:51:14;94338.75;;;11.98;100.00
13209;BME280;6669;42.678;23.332;2023-03-21T06:53:42;94341.41;;;12.05;100.00
13209;BME280;6669;42.678;23.332;2023-03-21T06:56:12;94338.25;;;12.09;100.00
13209;BME280;6669;42.678;23.332;2023-03-21T06:58:40;94340.91;;;12.16;100.00
13209;BME280;6669;42.678;23.332;2023-03-21T07:01:08;94346.38;;;12.21;100.00
13209;BME280;6669;42.678;23.332;2023-03-21T07:03:37;94340.59;;;12.26;100.00
13209;BME280;6669;42.678;23.332;2023-03-21T07:06:08;94344.09;;;12.40;100.00
13209;BME280;6669;42.678;23.332;2023-03-21T07:08:37;94339.91;;;12.46;100.00
13209;BME280;6669;42.678;23.332;2023-03-21T07:11:07;94351.03;;;12.61;100.00
13209;BME280;6669;42.678;23.332;2023-03-21T07:13:36;94346.03;;;12.59;100.00
13209;BME280;6669;42.678;23.332;2023-03-21T07:16:05;94340.84;;;12.66;100.00
13209;BME280;6669;42.678;23.332;2023-03-21T07:18:33;94343.69;;;12.71;100.00
13209;BME280;6669;42.678;23.332;2023-03-21T07:21:01;94339.31;;;12.79;100.00
13209;BME280;6669;42.678;23.332;2023-03-21T07:23:30;94351.50;;;12.71;100.00
13209;BME280;6669;42.678;23.332;2023-03-21T07:25:59;94362.00;;;12.78;100.00
13209;BME280;6669;42.678;23.332;2023-03-21T07:28:27;94348.97;;;12.85;100.00
13209;BME280;6669;42.678;23.332;2023-03-21T07:30:58;94344.22;;;12.95;100.00
13209;BME280;6669;42.678;23.332;2023-03-21T07:33:27;94341.47;;;13.03;100.00
13209;BME280;6669;42.678;23.332;2023-03-21T07:35:55;94336.84;;;13.05;100.00
13209;BME280;6669;42.678;23.332;2023-03-21T07:38:24;94350.38;;;13.22;100.00
13209;BME280;6669;42.678;23.332;2023-03-21T07:40:54;94347.53;;;13.17;100.00
13209;BME280;6669;42.678;23.332;2023-03-21T07:43:22;94330.47;;;13.15;100.00
13209;BME280;6669;42.678;23.332;2023-03-21T07:45:50;94349.97;;;13.25;100.00
13209;BME280;6669;42.678;23.332;2023-03-21T07:48:18;94341.56;;;13.30;100.00
13209;BME280;6669;42.678;23.332;2023-03-21T07:50:48;94342.56;;;13.36;100.00
13209;BME280;6669;42.678;23.332;2023-03-21T07:53:16;94343.81;;;13.40;99.64
13209;BME280;6669;42.678;23.332;2023-03-21T07:55:48;94354.53;;;13.52;100.00
13209;BME280;6669;42.678;23.332;2023-03-21T07:58:17;94358.91;;;13.45;98.83
13209;BME280;6669;42.678;23.332;2023-03-21T08:00:45;94356.94;;;13.53;96.16
13209;BME280;6669;42.678;23.332;2023-03-21T08:03:14;94351.47;;;13.42;95.36
13209;BME280;6669;42.678;23.332;2023-03-21T08:05:43;94352.78;;;13.17;95.93
13209;BME280;6669;42.678;23.332;2023-03-21T08:08:11;94349.34;;;13.23;96.79
13209;BME280;6669;42.678;23.332;2023-03-21T08:10:41;94349.25;;;13.38;97.54
13209;BME280;6669;42.678;23.332;2023-03-21T08:13:09;94353.69;;;13.51;95.81
13209;BME280;6669;42.678;23.332;2023-03-21T08:15:38;94345.06;;;13.44;94.80
13209;BME280;6669;42.678;23.332;2023-03-21T08:18:08;94330.94;;;13.32;94.86
13209;BME280;6669;42.678;23.332;2023-03-21T08:20:36;94339.06;;;13.50;92.72
13209;BME280;6669;42.678;23.332;2023-03-21T08:23:04;94336.66;;;13.69;92.39
13209;BME280;6669;42.678;23.332;2023-03-21T08:25:32;94337.28;;;13.84;90.65
13209;BME280;6669;42.678;23.332;2023-03-21T08:28:22;94326.47;;;13.94;88.91
13209;BME280;6669;42.678;23.332;2023-03-21T08:30:51;94327.25;;;14.15;88.34
13209;BME280;6669;42.678;23.332;2023-03-21T08:33:20;94328.50;;;14.26;86.26
13209;BME280;6669;42.678;23.332;2023-03-21T08:35:49;94325.25;;;14.30;86.40
13209;BME280;6669;42.678;23.332;2023-03-21T08:38:17;94322.66;;;14.23;85.56
13209;BME280;6669;42.678;23.332;2023-03-21T08:40:45;94327.69;;;14.12;84.59
13209;BME280;6669;42.678;23.332;2023-03-21T08:43:13;94345.34;;;14.16;84.28
13209;BME280;6669;42.678;23.332;2023-03-21T08:45:41;94340.53;;;14.20;81.47
13209;BME280;6669;42.678;23.332;2023-03-21T08:48:11;94326.06;;;14.11;82.45
13209;BME280;6669;42.678;23.332;2023-03-21T08:50:39;94324.06;;;14.13;82.97
13209;BME280;6669;42.678;23.332;2023-03-21T08:53:07;94339.16;;;14.31;82.90
13209;BME280;6669;42.678;23.332;2023-03-21T08:55:34;94318.22;;;14.24;82.16
13209;BME280;6669;42.678;23.332;2023-03-21T08:58:03;94315.78;;;14.43;82.53
13209;BME280;6669;42.678;23.332;2023-03-21T09:00:32;94320.81;;;14.58;81.14
13209;BME280;6669;42.678;23.332;2023-03-21T09:03:01;94305.31;;;14.56;80.22
13209;BME280;6669;42.678;23.332;2023-03-21T09:05:32;94311.53;;;14.68;80.96
13209;BME280;6669;42.678;23.332;2023-03-21T09:08:02;94322.19;;;14.74;79.84
13209;BME280;6669;42.678;23.332;2023-03-21T09:10:32;94319.16;;;14.83;78.63
13209;BME280;6669;42.678;23.332;2023-03-21T09:13:01;94309.50;;;14.91;78.18
13209;BME280;6669;42.678;23.332;2023-03-21T09:15:28;94296.63;;;14.89;76.92
13209;BME280;6669;42.678;23.332;2023-03-21T09:17:58;94311.47;;;15.02;76.53
13209;BME280;6669;42.678;23.332;2023-03-21T09:20:41;94312.22;;;15.16;75.68
13209;BME280;6669;42.678;23.332;2023-03-21T09:23:10;94296.56;;;15.02;74.94
13209;BME280;6669;42.678;23.332;2023-03-21T09:25:38;94290.53;;;15.02;75.11
13209;BME280;6669;42.678;23.332;2023-03-21T09:28:07;94286.41;;;15.19;75.32
13209;BME280;6669;42.678;23.332;2023-03-21T09:30:35;94286.81;;;15.55;75.74
13209;BME280;6669;42.678;23.332;2023-03-21T09:33:04;94274.91;;;15.27;73.13
13209;BME280;6669;42.678;23.332;2023-03-21T09:35:34;94283.50;;;15.34;73.23
13209;BME280;6669;42.678;23.332;2023-03-21T09:38:04;94282.13;;;15.32;73.07
13209;BME280;6669;42.678;23.332;2023-03-21T09:40:46;94290.47;;;15.54;73.21
13209;BME280;6669;42.678;23.332;2023-03-21T09:43:25;94266.91;;;15.54;72.92
13209;BME280;6669;42.678;23.332;2023-03-21T09:46:02;94268.03;;;15.65;73.48
13209;BME280;6669;42.678;23.332;2023-03-21T09:48:40;94250.66;;;15.71;73.42
13209;BME280;6669;42.678;23.332;2023-03-21T09:51:25;94260.72;;;15.74;73.29
13209;BME280;6669;42.678;23.332;2023-03-21T09:53:57;94259.47;;;15.83;73.55
13209;BME280;6669;42.678;23.332;2023-03-21T09:56:28;94255.13;;;15.95;73.82
13209;BME280;6669;42.678;23.332;2023-03-21T09:58:58;94255.22;;;16.07;72.01
13209;BME280;6669;42.678;23.332;2023-03-21T10:01:28;94263.16;;;16.26;71.22
13209;BME280;6669;42.678;23.332;2023-03-21T10:04:00;94256.06;;;16.26;70.72
13209;BME280;6669;42.678;23.332;2023-03-21T10:06:30;94258.56;;;16.40;70.38
13209;BME280;6669;42.678;23.332;2023-03-21T10:09:02;94261.72;;;16.48;71.30
13209;BME280;6669;42.678;23.332;2023-03-21T10:11:39;94252.09;;;16.61;71.23
13209;BME280;6669;42.678;23.332;2023-03-21T10:14:16;94246.50;;;16.57;70.78
13209;BME280;6669;42.678;23.332;2023-03-21T10:16:48;94240.00;;;16.78;70.26
13209;BME280;6669;42.678;23.332;2023-03-21T10:19:18;94246.41;;;17.20;68.85
13209;BME280;6669;42.678;23.332;2023-03-21T10:21:48;94237.03;;;17.54;68.56
13209;BME280;6669;42.678;23.332;2023-03-21T10:24:30;94225.59;;;18.14;65.13
13209;BME280;6669;42.678;23.332;2023-03-21T10:26:59;94229.22;;;18.49;63.76
13209;BME280;6669;42.678;23.332;2023-03-21T10:29:31;94227.25;;;18.68;63.46
13209;BME280;6669;42.678;23.332;2023-03-21T10:32:02;94233.59;;;19.08;62.12
13209;BME280;6669;42.678;23.332;2023-03-21T10:34:34;94232.88;;;19.41;61.14
13209;BME280;6669;42.678;23.332;2023-03-21T10:37:04;94235.44;;;19.36;59.62
13209;BME280;6669;42.678;23.332;2023-03-21T10:39:36;94231.13;;;19.47;59.30
13209;BME280;6669;42.678;23.332;2023-03-21T10:42:05;94240.00;;;19.12;59.40
13209;BME280;6669;42.678;23.332;2023-03-21T10:44:37;94232.59;;;18.97;59.71
13209;BME280;6669;42.678;23.332;2023-03-21T10:47:07;94235.59;;;19.30;60.33
13209;BME280;6669;42.678;23.332;2023-03-21T10:49:37;94228.09;;;19.09;58.79
13209;BME280;6669;42.678;23.332;2023-03-21T10:52:27;94227.84;;;19.11;57.77
13209;BME280;6669;42.678;23.332;2023-03-21T10:55:17;94240.97;;;19.23;57.99
13209;BME280;6669;42.678;23.332;2023-03-21T10:57:48;94230.59;;;18.52;58.75
13209;BME280;6669;42.678;23.332;2023-03-21T11:00:21;94217.16;;;18.77;59.94
13209;BME280;6669;42.678;23.332;2023-03-21T11:02:52;94215.81;;;18.62;59.40
13209;BME280;6669;42.678;23.332;2023-03-21T11:05:23;94221.50;;;18.83;59.68
13209;BME280;6669;42.678;23.332;2023-03-21T11:07:57;94211.31;;;18.87;58.27
13209;BME280;6669;42.678;23.332;2023-03-21T11:10:31;94209.94;;;18.84;57.07
13209;BME280;6669;42.678;23.332;2023-03-21T11:13:04;94199.47;;;19.13;56.21
13209;BME280;6669;42.678;23.332;2023-03-21T11:15:40;94196.31;;;19.45;55.82
13209;BME280;6669;42.678;23.332;2023-03-21T11:18:15;94195.84;;;19.48;54.44
13209;BME280;6669;42.678;23.332;2023-03-21T11:20:51;94207.78;;;19.68;54.62
13209;BME280;6669;42.678;23.332;2023-03-21T11:23:20;94194.75;;;19.78;55.41
13209;BME280;6669;42.678;23.332;2023-03-21T11:25:54;94201.16;;;19.99;54.72
13209;BME280;6669;42.678;23.332;2023-03-21T11:28:32;94187.63;;;20.13;53.41
13209;BME280;6669;42.678;23.332;2023-03-21T11:31:03;94176.25;;;20.29;53.18
13209;BME280;6669;42.678;23.332;2023-03-21T11:33:36;94163.59;;;20.31;52.32
13209;BME280;6669;42.678;23.332;2023-03-21T11:36:24;94178.38;;;20.49;52.58
13209;BME280;6669;42.678;23.332;2023-03-21T11:38:57;94179.22;;;20.33;52.14
13209;BME280;6669;42.678;23.332;2023-03-21T11:41:31;94169.25;;;20.18;52.42
13209;BME280;6669;42.678;23.332;2023-03-21T11:44:01;94169.38;;;20.28;51.75
13209;BME280;6669;42.678;23.332;2023-03-21T11:46:32;94169.28;;;19.84;52.46
13209;BME280;6669;42.678;23.332;2023-03-21T11:49:08;94157.34;;;19.81;52.98
13209;BME280;6669;42.678;23.332;2023-03-21T11:51:40;94161.00;;;19.80;52.41
13209;BME280;6669;42.678;23.332;2023-03-21T11:54:14;94161.34;;;19.67;52.58
13209;BME280;6669;42.678;23.332;2023-03-21T11:56:50;94156.25;;;19.60;52.58
13209;BME280;6669;42.678;23.332;2023-03-21T11:59:32;94147.59;;;19.65;52.35
13209;BME280;6669;42.678;23.332;2023-03-21T12:02:25;94152.00;;;19.76;52.02
13209;BME280;6669;42.678;23.332;2023-03-21T12:05:04;94141.06;;;19.84;50.85
13209;BME280;6669;42.678;23.332;2023-03-21T12:07:47;94139.47;;;19.83;52.00
13209;BME280;6669;42.678;23.332;2023-03-21T12:10:38;94136.31;;;19.52;52.18
13209;BME280;6669;42.678;23.332;2023-03-21T12:13:30;94138.16;;;19.52;52.40
13209;BME280;6669;42.678;23.332;2023-03-21T12:16:08;94140.88;;;19.57;53.21
13209;BME280;6669;42.678;23.332;2023-03-21T12:18:59;94131.06;;;19.52;52.34
13209;BME280;6669;42.678;23.332;2023-03-21T12:21:33;94121.25;;;19.48;53.13
13209;BME280;6669;42.678;23.332;2023-03-21T12:24:07;94126.28;;;19.49;53.01
13209;BME280;6669;42.678;23.332;2023-03-21T12:26:42;94122.50;;;19.11;51.99
13209;BME280;6669;42.678;23.332;2023-03-21T12:29:33;94132.53;;;19.14;53.05
13209;BME280;6669;42.678;23.332;2023-03-21T12:32:09;94117.72;;;19.08;51.75
13209;BME280;6669;42.678;23.332;2023-03-21T12:34:56;94118.88;;;19.00;51.50
13209;BME280;6669;42.678;23.332;2023-03-21T12:37:35;94116.50;;;19.16;51.86
13209;BME280;6669;42.678;23.332;2023-03-21T12:40:10;94115.44;;;19.00;53.08
13209;BME280;6669;42.678;23.332;2023-03-21T12:42:48;94100.63;;;18.82;53.44
13209;BME280;6669;42.678;23.332;2023-03-21T12:45:23;94114.22;;;18.90;51.83
13209;BME280;6669;42.678;23.332;2023-03-21T12:48:15;94098.97;;;18.92;52.69
13209;BME280;6669;42.678;23.332;2023-03-21T12:50:46;94106.50;;;19.01;52.21
13209;BME280;6669;42.678;23.332;2023-03-21T12:53:28;94105.47;;;19.02;52.50
13209;BME280;6669;42.678;23.332;2023-03-21T12:56:00;94108.19;;;19.07;52.75
13209;BME280;6669;42.678;23.332;2023-03-21T12:58:30;94088.50;;;19.09;51.91
13209;BME280;6669;42.678;23.332;2023-03-21T13:01:04;94090.63;;;19.13;52.20
13209;BME280;6669;42.678;23.332;2023-03-21T13:03:36;94084.44;;;18.90;51.79
13209;BME280;6669;42.678;23.332;2023-03-21T13:06:09;94085.47;;;18.89;52.69
13209;BME280;6669;42.678;23.332;2023-03-21T13:08:43;94084.56;;;18.83;52.64
13209;BME280;6669;42.678;23.332;2023-03-21T13:11:14;94078.25;;;18.96;52.68
13209;BME280;6669;42.678;23.332;2023-03-21T13:13:46;94065.88;;;18.97;53.51
13209;BME280;6669;42.678;23.332;2023-03-21T13:16:21;94063.88;;;19.04;53.01
13209;BME280;6669;42.678;23.332;2023-03-21T13:19:05;94082.22;;;18.99;52.75
13209;BME280;6669;42.678;23.332;2023-03-21T13:21:44;94060.00;;;18.77;52.96
13209;BME280;6669;42.678;23.332;2023-03-21T13:24:25;94055.84;;;18.65;52.84
13209;BME280;6669;42.678;23.332;2023-03-21T13:27:01;94061.41;;;18.68;53.61
13209;BME280;6669;42.678;23.332;2023-03-21T13:29:41;94073.25;;;18.83;53.41